sensor_id;sensor_type;location;lat;lon;timestamp;temperature;humidity
16728;DHT22;8482;54.396;18.590;2024-03-02T16:33:50;11.50;99.90
16728;DHT22;8482;54.396;18.590;2024-03-02T16:36:16;11.50;99.90
16728;DHT22;8482;54.396;18.590;2024-03-02T16:38:43;11.40;99.90
16728;DHT22;8482;54.396;18.590;2024-03-02T16:41:09;11.50;99.90
16728;DHT22;8482;54.396;18.590;2024-03-02T16:43:35;11.40;99.90
16728;DHT22;8482;54.396;18.590;2024-03-02T16:46:04;11.40;99.90
16728;DHT22;8482;54.396;18.590;2024-03-02T16:48:31;11.40;99.90
16728;DHT22;8482;54.396;18.590;2024-03-02T16:50:57;11.40;99.90
16728;DHT22;8482;54.396;18.590;2024-03-02T16:53:23;11.40;99.90
16728;DHT22;8482;54.396;18.590;2024-03-02T16:55:49;11.40;99.90
16728;DHT22;8482;54.396;18.590;2024-03-02T16:58:18;11.40;99.90
16728;DHT22;8482;54.396;18.590;2024-03-02T17:00:45;11.40;99.90
16728;DHT22;8482;54.396;18.590;2024-03-02T17:03:10;11.40;99.90
16728;DHT22;8482;54.396;18.590;2024-03-02T17:05:36;11.50;99.90
16728;DHT22;8482;54.396;18.590;2024-03-02T17:08:02;11.50;99.90
16728;DHT22;8482;54.396;18.590;2024-03-02T17:10:28;11.50;99.90
16728;DHT22;8482;54.396;18.590;2024-03-02T17:12:54;11.50;99.90
16728;DHT22;8482;54.396;18.590;2024-03-02T17:15:21;11.50;99.90
16728;DHT22;8482;54.396;18.590;2024-03-02T17:17:47;11.50;99.90
16728;DHT22;8482;54.396;18.590;2024-03-02T17:20:13;11.50;99.90
16728;DHT22;8482;54.396;18.590;2024-03-02T17:22:40;11.50;99.90
16728;DHT22;8482;54.396;18.590;2024-03-02T17:25:07;11.50;99.90
16728;DHT22;8482;54.396;18.590;2024-03-02T17:27:33;11.50;99.90
16728;DHT22;8482;54.396;18.590;2024-03-02T17:29:59;11.50;99.90
16728;DHT22;8482;54.396;18.590;2024-03-02T17:32:25;11.50;99.90
16728;DHT22;8482;54.396;18.590;2024-03-02T17:34:51;11.50;99.90
16728;DHT22;8482;54.396;18.590;2024-03-02T17:37:17;11.50;99.90
16728;DHT22;8482;54.396;18.590;2024-03-02T17:39:42;11.50;99.90
16728;DHT22;8482;54.396;18.590;2024-03-02T17:42:10;11.40;99.90
16728;DHT22;8482;54.396;18.590;2024-03-02T17:44:36;11.40;99.90
16728;DHT22;8482;54.396;18.590;2024-03-02T17:47:02;11.40;99.90
16728;DHT22;8482;54.396;18.590;2024-03-02T17:49:31;11.40;99.90
16728;DHT22;8482;54.396;18.590;2024-03-02T17:51:57;11.30;99.90
16728;DHT22;8482;54.396;18.590;2024-03-02T17:54:23;11.40;99.90
16728;DHT22;8482;54.396;18.590;2024-03-02T17:56:49;11.30;99.90
16728;DHT22;8482;54.396;18.590;2024-03-02T17:59:15;11.30;99.90
16728;DHT22;8482;54.396;18.590;2024-03-02T18:01:41;11.30;99.90
16728;DHT22;8482;54.396;18.590;2024-03-02T18:04:07;11.30;99.90
16728;DHT22;8482;54.396;18.590;2024-03-02T18:06:32;11.30;99.90
16728;DHT22;8482;54.396;18.590;2024-03-02T18:08:59;11.20;99.90
16728;DHT22;8482;54.396;18.590;2024-03-02T18:11:26;11.20;99.90
16728;DHT22;8482;54.396;18.590;2024-03-02T18:13:52;11.20;99.90
16728;DHT22;8482;54.396;18.590;2024-03-02T18:16:18;11.20;99.90
16728;DHT22;8482;54.396;18.590;2024-03-02T18:18:46;11.20;99.90
16728;DHT22;8482;54.396;18.590;2024-03-02T18:21:13;11.10;99.90
16728;DHT22;8482;54.396;18.590;2024-03-02T18:23:39;11.20;99.90
16728;DHT22;8482;54.396;18.590;2024-03-02T18:26:06;11.10;99.90
16728;DHT22;8482;54.396;18.590;2024-03-02T18:28:32;11.10;99.90
16728;DHT22;8482;54.396;18.590;2024-03-02T18:30:58;11.10;99.90
16728;DHT22;8482;54.396;18.590;2024-03-02T18:33:24;11.00;99.90
16728;DHT22;8482;54.396;18.590;2024-03-02T18:35:50;11.00;99.90
16728;DHT22;8482;54.396;18.590;2024-03-02T18:38:16;11.00;99.90
16728;DHT22;8482;54.396;18.590;2024-03-02T18:40:42;11.00;99.90
16728;DHT22;8482;54.396;18.590;2024-03-02T18:43:13;11.00;99.90
16728;DHT22;8482;54.396;18.590;2024-03-02T18:45:38;10.90;99.90
16728;DHT22;8482;54.396;18.590;2024-03-02T18:48:26;10.90;99.90
16728;DHT22;8482;54.396;18.590;2024-03-02T18:50:58;10.90;99.90
16728;DHT22;8482;54.396;18.590;2024-03-02T18:53:27;10.80;99.90
16728;DHT22;8482;54.396;18.590;2024-03-02T18:55:58;10.90;99.90
16728;DHT22;8482;54.396;18.590;2024-03-02T18:58:38;10.90;99.90
16728;DHT22;8482;54.396;18.590;2024-03-02T19:01:26;10.90;99.90
16728;DHT22;8482;54.396;18.590;2024-03-02T19:03:57;10.80;99.90
16728;DHT22;8482;54.396;18.590;2024-03-02T19:06:29;10.80;99.90
16728;DHT22;8482;54.396;18.590;2024-03-02T19:08:55;10.80;99.90
16728;DHT22;8482;54.396;18.590;2024-03-02T19:11:23;10.80;99.90
16728;DHT22;8482;54.396;18.590;2024-03-02T19:13:49;10.80;99.90
16728;DHT22;8482;54.396;18.590;2024-03-02T19:16:16;10.80;99.90
16728;DHT22;8482;54.396;18.590;2024-03-02T19:18:43;10.80;99.90
16728;DHT22;8482;54.396;18.590;2024-03-02T19:21:09;10.80;99.90
16728;DHT22;8482;54.396;18.590;2024-03-02T19:23:36;10.80;99.90
16728;DHT22;8482;54.396;18.590;2024-03-02T19:26:24;10.80;99.90
16728;DHT22;8482;54.396;18.590;2024-03-02T19:28:49;10.80;99.90
16728;DHT22;8482;54.396;18.590;2024-03-02T19:31:15;10.70;99.90
16728;DHT22;8482;54.396;18.590;2024-03-02T19:33:42;10.70;99.90
16728;DHT22;8482;54.396;18.590;2024-03-02T19:36:07;10.70;99.90
16728;DHT22;8482;54.396;18.590;2024-03-02T19:38:33;10.70;99.90
16728;DHT22;8482;54.396;18.590;2024-03-02T19:41:03;10.70;99.90
16728;DHT22;8482;54.396;18.590;2024-03-02T19:43:35;10.70;99.90
16728;DHT22;8482;54.396;18.590;2024-03-02T19:46:01;10.60;99.90
16728;DHT22;8482;54.396;18.590;2024-03-02T19:48:27;10.60;99.90
16728;DHT22;8482;54.396;18.590;2024-03-02T19:50:53;10.70;99.90
16728;DHT22;8482;54.396;18.590;2024-03-02T19:53:24;10.60;99.90
16728;DHT22;8482;54.396;18.590;2024-03-02T19:55:51;10.60;99.90
16728;DHT22;8482;54.396;18.590;2024-03-02T19:58:17;10.60;99.90
16728;DHT22;8482;54.396;18.590;2024-03-02T20:00:50;10.60;99.90
16728;DHT22;8482;54.396;18.590;2024-03-02T20:03:18;10.60;99.90
16728;DHT22;8482;54.396;18.590;2024-03-02T20:05:45;10.60;99.90
16728;DHT22;8482;54.396;18.590;2024-03-02T20:08:11;10.60;99.90
16728;DHT22;8482;54.396;18.590;2024-03-02T20:10:36;10.60;99.90
16728;DHT22;8482;54.396;18.590;2024-03-02T20:13:02;10.60;99.90
16728;DHT22;8482;54.396;18.590;2024-03-02T20:15:34;10.60;99.90
16728;DHT22;8482;54.396;18.590;2024-03-02T20:18:00;10.60;99.90
16728;DHT22;8482;54.396;18.590;2024-03-02T20:20:26;10.60;99.90
16728;DHT22;8482;54.396;18.590;2024-03-02T20:22:52;10.60;99.90
16728;DHT22;8482;54.396;18.590;2024-03-02T20:25:18;10.60;99.90
16728;DHT22;8482;54.396;18.590;2024-03-02T20:27:44;10.50;99.90
16728;DHT22;8482;54.396;18.590;2024-03-02T20:30:11;10.50;99.90
16728;DHT22;8482;54.396;18.590;2024-03-02T20:32:38;10.50;99.90
16728;DHT22;8482;54.396;18.590;2024-03-02T20:35:04;10.50;99.90
16728;DHT22;8482;54.396;18.590;2024-03-02T20:37:30;10.50;99.90
16728;DHT22;8482;54.396;18.590;2024-03-02T20:39:56;10.50;99.90
16728;DHT22;8482;54.396;18.590;2024-03-02T20:42:24;10.50;99.90
16728;DHT22;8482;54.396;18.590;2024-03-02T20:44:53;10.50;99.90
16728;DHT22;8482;54.396;18.590;2024-03-02T20:47:19;10.40;99.90
16728;DHT22;8482;54.396;18.590;2024-03-02T20:49:48;10.40;99.90
16728;DHT22;8482;54.396;18.590;2024-03-02T20:52:16;10.40;99.90
16728;DHT22;8482;54.396;18.590;2024-03-02T20:54:45;10.40;99.90
16728;DHT22;8482;54.396;18.590;2024-03-02T20:57:11;10.40;99.90
16728;DHT22;8482;54.396;18.590;2024-03-02T20:59:37;10.30;99.90
16728;DHT22;8482;54.396;18.590;2024-03-02T21:02:03;10.30;99.90
16728;DHT22;8482;54.396;18.590;2024-03-02T21:04:29;10.30;99.90
16728;DHT22;8482;54.396;18.590;2024-03-02T21:06:55;10.30;99.90
16728;DHT22;8482;54.396;18.590;2024-03-02T21:09:21;10.30;99.90
16728;DHT22;8482;54.396;18.590;2024-03-02T21:11:47;10.30;99.90
16728;DHT22;8482;54.396;18.590;2024-03-02T21:14:14;10.30;99.90
16728;DHT22;8482;54.396;18.590;2024-03-02T21:16:40;10.30;99.90
16728;DHT22;8482;54.396;18.590;2024-03-02T21:19:08;10.20;99.90
16728;DHT22;8482;54.396;18.590;2024-03-02T21:21:36;10.30;99.90
16728;DHT22;8482;54.396;18.590;2024-03-02T21:24:05;10.20;99.90
16728;DHT22;8482;54.396;18.590;2024-03-02T21:26:31;10.20;99.90
16728;DHT22;8482;54.396;18.590;2024-03-02T21:28:57;10.20;99.90
16728;DHT22;8482;54.396;18.590;2024-03-02T21:31:23;10.20;99.90
16728;DHT22;8482;54.396;18.590;2024-03-02T21:33:49;10.30;99.90
16728;DHT22;8482;54.396;18.590;2024-03-02T21:36:14;10.30;99.90
16728;DHT22;8482;54.396;18.590;2024-03-02T21:38:40;10.30;99.90
16728;DHT22;8482;54.396;18.590;2024-03-02T21:41:14;10.30;99.90
16728;DHT22;8482;54.396;18.590;2024-03-02T21:43:39;10.30;99.90
16728;DHT22;8482;54.396;18.590;2024-03-02T21:46:13;10.30;99.90
16728;DHT22;8482;54.396;18.590;2024-03-02T21:48:39;10.30;99.90
16728;DHT22;8482;54.396;18.590;2024-03-02T21:51:04;10.30;99.90
16728;DHT22;8482;54.396;18.590;2024-03-02T21:53:31;10.30;99.90
16728;DHT22;8482;54.396;18.590;2024-03-02T21:55:56;10.30;99.90
16728;DHT22;8482;54.396;18.590;2024-03-02T21:58:22;10.30;99.90
16728;DHT22;8482;54.396;18.590;2024-03-02T22:00:48;10.30;99.90
16728;DHT22;8482;54.396;18.590;2024-03-02T22:03:14;10.30;99.90
16728;DHT22;8482;54.396;18.590;2024-03-02T22:05:40;10.30;99.90
16728;DHT22;8482;54.396;18.590;2024-03-02T22:08:07;10.30;99.90
16728;DHT22;8482;54.396;18.590;2024-03-02T22:10:33;10.30;99.90
16728;DHT22;8482;54.396;18.590;2024-03-02T22:12:58;10.30;99.90
16728;DHT22;8482;54.396;18.590;2024-03-02T22:15:25;10.30;99.90
16728;DHT22;8482;54.396;18.590;2024-03-02T22:17:51;10.30;99.90
16728;DHT22;8482;54.396;18.590;2024-03-02T22:20:18;10.30;99.90
16728;DHT22;8482;54.396;18.590;2024-03-02T22:22:44;10.30;99.90
16728;DHT22;8482;54.396;18.590;2024-03-02T22:25:10;10.20;99.90
16728;DHT22;8482;54.396;18.590;2024-03-02T22:27:36;10.20;99.90
16728;DHT22;8482;54.396;18.590;2024-03-02T22:30:06;10.20;99.90
16728;DHT22;8482;54.396;18.590;2024-03-02T22:32:32;10.30;99.90
16728;DHT22;8482;54.396;18.590;2024-03-02T22:34:58;10.30;99.90
16728;DHT22;8482;54.396;18.590;2024-03-02T22:37:24;10.30;99.90
16728;DHT22;8482;54.396;18.590;2024-03-02T22:39:50;10.20;99.90
16728;DHT22;8482;54.396;18.590;2024-03-02T22:42:16;10.20;99.90
16728;DHT22;8482;54.396;18.590;2024-03-02T22:44:41;10.20;99.90
16728;DHT22;8482;54.396;18.590;2024-03-02T22:47:07;10.20;99.90
16728;DHT22;8482;54.396;18.590;2024-03-02T22:49:33;10.20;99.90
16728;DHT22;8482;54.396;18.590;2024-03-02T22:51:59;10.20;99.90
16728;DHT22;8482;54.396;18.590;2024-03-02T22:54:25;10.20;99.90
16728;DHT22;8482;54.396;18.590;2024-03-02T22:56:51;10.20;99.90
16728;DHT22;8482;54.396;18.590;2024-03-02T22:59:17;10.20;99.90
16728;DHT22;8482;54.396;18.590;2024-03-02T23:01:42;10.20;99.90
16728;DHT22;8482;54.396;18.590;2024-03-02T23:04:09;10.10;99.90
16728;DHT22;8482;54.396;18.590;2024-03-02T23:06:36;10.10;99.90
16728;DHT22;8482;54.396;18.590;2024-03-02T23:09:02;10.10;99.90
16728;DHT22;8482;54.396;18.590;2024-03-02T23:11:29;10.10;99.90
16728;DHT22;8482;54.396;18.590;2024-03-02T23:13:54;10.10;99.90
16728;DHT22;8482;54.396;18.590;2024-03-02T23:16:20;10.10;99.90
16728;DHT22;8482;54.396;18.590;2024-03-02T23:18:46;10.10;99.90
16728;DHT22;8482;54.396;18.590;2024-03-02T23:21:12;10.10;99.90
16728;DHT22;8482;54.396;18.590;2024-03-02T23:23:38;10.10;99.90
16728;DHT22;8482;54.396;18.590;2024-03-02T23:26:04;10.10;99.90
16728;DHT22;8482;54.396;18.590;2024-03-02T23:28:31;10.10;99.90
16728;DHT22;8482;54.396;18.590;2024-03-02T23:30:58;10.10;99.90
16728;DHT22;8482;54.396;18.590;2024-03-02T23:33:24;10.10;99.90
16728;DHT22;8482;54.396;18.590;2024-03-02T23:35:50;10.10;99.90
16728;DHT22;8482;54.396;18.590;2024-03-02T23:38:16;10.10;99.90
16728;DHT22;8482;54.396;18.590;2024-03-02T23:40:42;10.10;99.90
16728;DHT22;8482;54.396;18.590;2024-03-02T23:43:28;10.10;99.90
